DRI Storm Peak Lab. Weather observations

Data are for 5 minute period ending at time listed.
 Day   Time    Ave.   Ave.  Ave.  Vector  Max.   Total    Baro.    Solar      Aerosol      Ave.  Ultrafine   Snow  
  of    of     Air    Rel.  Wind   Wind   Wind  Precip.   Pres.  Radiation   Aerosol      Ozone   Aerosol    Depth 
Year   Day     Temp.  Hum.  Speed  Dir.   Gust                               Ave.   Max.            Ave.           
2016   (MST)    F      %     mph   deg.    mph    in.      mb.     w/m2         #/cm3      ppbv    #/cm3      in.  
-------------------------------------------------------------------------------------------------------------------
 210    9:10   59.3    27    4.6   283     6.1   999.00    699.4    999.0    999000   999000   999.0    999000   999.0
 210    9:15   59.3    28    5.1   272     7.2   999.00    699.4    999.0    999000   999000   999.0    999000   999.0
 210    9:20   59.3    27    4.5   286     6.8   999.00    699.4    999.0    999000   999000   999.0    999000   999.0
 210    9:25   59.3    28    5.4   289     8.3   999.00    699.5    999.0    999000   999000   999.0    999000   999.0
 210    9:30   59.3    28    5.0   294     6.6   999.00    699.4    999.0    999000   999000   999.0    999000   999.0
 210    9:35   59.5    28    4.2   287     6.6   999.00    699.5    999.0    999000   999000   999.0    999000   999.0
 210    9:40   59.8    28    4.7   280     6.3   999.00    699.5    999.0    999000   999000   999.0    999000   999.0
 210    9:45   60.1    28    5.3   290     7.0   999.00    699.6    999.0    999000   999000   999.0    999000   999.0
 210    9:50   60.5    27    5.5   287     9.2   999.00    699.5    999.0    999000   999000   999.0    999000   999.0
 210    9:55   60.2    28    5.1   278     7.6   999.00    699.5    999.0    999000   999000   999.0    999000   999.0
 210   10:00   60.7    29    4.7   257     6.8   999.00    699.5    999.0    999000   999000   999.0    999000   999.0
 210   10:05   60.6    28    4.7   273     9.6   999.00    699.5    999.0    999000   999000   999.0    999000   999.0
 210   10:10   61.3    30    3.8   280     5.3   999.00    699.5    999.0    999000   999000   999.0    999000   999.0
 210   10:15   61.6    28    5.6   294    11.5   999.00    699.5    999.0    999000   999000   999.0    999000   999.0
 210   10:20   61.5    30    4.3   301     6.6   999.00    699.5    999.0    999000   999000   999.0    999000   999.0
 210   10:25   60.7    30    5.2   304     7.2   999.00    699.5    999.0    999000   999000   999.0    999000   999.0
 210   10:30   61.5    29    4.5   282     7.4   999.00    699.5    999.0    999000   999000   999.0    999000   999.0
 210   10:35   61.2    29    4.6   300     6.3   999.00    699.5    999.0    999000   999000   999.0    999000   999.0
 210   10:40   61.6    29    5.9   286    10.0   999.00    699.5    999.0    999000   999000   999.0    999000   999.0
 210   10:45   61.7    28    6.0   279     8.9   999.00    699.5    999.0    999000   999000   999.0    999000   999.0
 210   10:50   61.3    28    5.2   277     9.4   999.00    699.5    999.0    999000   999000   999.0    999000   999.0
 210   10:55   61.8    27    5.6   273     7.9   999.00    699.5    999.0    999000   999000   999.0    999000   999.0
 210   11:00   62.2    26    5.5   280     9.8   999.00    699.5    999.0    999000   999000   999.0    999000   999.0
 210   11:05   62.0    25    6.3   257    10.0   999.00    699.5    999.0    999000   999000   999.0    999000   999.0
 210   11:10   62.2    26    4.8   275     7.8   999.00    699.4    999.0    999000   999000   999.0    999000   999.0
 210   11:15   62.5    25    5.8   297     8.1   999.00    699.4    999.0    999000   999000   999.0    999000   999.0
 210   11:20   63.3    27    3.9   303     6.5   999.00    699.4    999.0    999000   999000   999.0    999000   999.0
 210   11:25   63.6    28    4.6   299     6.3   999.00    699.4    999.0    999000   999000   999.0    999000   999.0
 210   11:30   63.8    26    4.8   292     6.3   999.00    699.4    999.0    999000   999000   999.0    999000   999.0
 210   11:35   63.3    26    4.9   296     6.6   999.00    699.4    999.0    999000   999000   999.0    999000   999.0
 210   11:40   63.8    26    4.4   298     5.9   999.00    699.4    999.0    999000   999000   999.0    999000   999.0
 210   11:45   64.7    26    7.0   261    15.6   999.00    699.4    999.0    999000   999000   999.0    999000   999.0
 210   11:50   64.8    24    9.7   248    14.6   999.00    699.4    999.0    999000   999000   999.0    999000   999.0
 210   11:55   64.0    24   11.7   251    20.4   999.00    699.4    999.0    999000   999000   999.0    999000   999.0
 210   12:00   63.6    25   11.4   246    16.3   999.00    699.4    999.0    999000   999000   999.0    999000   999.0
 210   12:05   63.5    25   12.5   239    20.2   999.00    699.4    999.0    999000   999000   999.0    999000   999.0
 210   12:10   64.0    26    8.2   266    13.7   999.00    699.3    999.0    999000   999000   999.0    999000   999.0
 210   12:15   65.0    27    8.2   272    14.4   999.00    699.3    999.0    999000   999000   999.0    999000   999.0
 210   12:20   65.8    27    8.5   282    12.6   999.00    699.3    999.0    999000   999000   999.0    999000   999.0
 210   12:25   65.6    27    9.4   286    13.7   999.00    699.2    999.0    999000   999000   999.0    999000   999.0
 210   12:30   65.0    26   11.0   292    15.9   999.00    699.2    999.0    999000   999000   999.0    999000   999.0
 210   12:35   65.4    25   10.7   300    18.7   999.00    699.1    999.0    999000   999000   999.0    999000   999.0
 210   12:40   65.4    23   12.0   284    20.6   999.00    699.2    999.0    999000   999000   999.0    999000   999.0
 210   12:45   65.4    22   13.3   299    17.6   999.00    699.1    999.0    999000   999000   999.0    999000   999.0
 210   12:50   65.2    23   15.3   296    22.1   999.00    699.0    999.0    999000   999000   999.0    999000   999.0
 210   12:55   65.4    23   10.7   282    16.1   999.00    699.0    999.0    999000   999000   999.0    999000   999.0
 210   13:00   66.3    24   14.4   276    26.2   999.00    699.0    999.0    999000   999000   999.0    999000   999.0
 210   13:05   66.3    23   14.2   282    19.1   999.00    698.9    999.0    999000   999000   999.0    999000   999.0
 210   13:10   66.3    24   11.8   291    19.3   999.00    698.9    999.0    999000   999000   999.0    999000   999.0
 210   13:15   66.5    23   14.0   282    21.9   999.00    698.8    999.0    999000   999000   999.0    999000   999.0
 210   13:20   67.0    23   15.3   273    24.9   999.00    698.8    999.0    999000   999000   999.0    999000   999.0
 210   13:25   66.4    22   18.2   289    24.3   999.00    698.7    999.0    999000   999000   999.0    999000   999.0
 210   13:30   65.8    22   17.9   295    23.8   999.00    698.7    999.0    999000   999000   999.0    999000   999.0
 210   13:35   66.0    23   16.2   293    24.7   999.00    698.6    999.0    999000   999000   999.0    999000   999.0
 210   13:40   66.2    22   17.4   284    22.3   999.00    698.6    999.0    999000   999000   999.0    999000   999.0
 210   13:45   66.7    22   15.9   255    24.5   999.00    698.7    999.0    999000   999000   999.0    999000   999.0
 210   13:50   67.0    22   19.6   249    29.2   999.00    698.7    999.0    999000   999000   999.0    999000   999.0
 210   13:55   67.9    23   11.1   277    24.9   999.00    698.7    999.0    999000   999000   999.0    999000   999.0
 210   14:00   68.9    22   14.1   280    23.8   999.00    698.5    999.0    999000   999000   999.0    999000   999.0
 210   14:05   67.1    21   15.8   310    24.1   999.00    698.5    999.0    999000   999000   999.0    999000   999.0
 210   14:10   68.1    23   10.1   279    20.0   999.00    698.6    999.0    999000   999000   999.0    999000   999.0
 210   14:15   68.8    21   13.7   271    21.7   999.00    698.5    999.0    999000   999000   999.0    999000   999.0
 210   14:20   68.7    21   14.8   262    21.3   999.00    698.4    999.0    999000   999000   999.0    999000   999.0
 210   14:25   68.5    22   14.7   267    24.3   999.00    698.4    999.0    999000   999000   999.0    999000   999.0
 210   14:30   68.4    21   17.7   287    27.3   999.00    698.3    999.0    999000   999000   999.0    999000   999.0
 210   14:35   67.3    22   16.6   280    24.5   999.00    698.2    999.0    999000   999000   999.0    999000   999.0
 210   14:40   67.3    22   17.9   309    25.2   999.00    698.1    999.0    999000   999000   999.0    999000   999.0
 210   14:45   66.5    23   15.5   291    28.2   999.00    698.2    999.0    999000   999000   999.0    999000   999.0
 210   14:50   67.6    22   18.0   298    23.2   999.00    698.1    999.0    999000   999000   999.0    999000   999.0
 210   14:55   66.9    23   14.6   304    21.1   999.00    698.1    999.0    999000   999000   999.0    999000   999.0
 210   15:00   65.5    24   17.3   302    30.8   999.00    698.0    999.0    999000   999000   999.0    999000   999.0
 210   15:05   65.5    23   20.4   291    28.4   999.00    697.9    999.0    999000   999000   999.0    999000   999.0
 210   15:10   66.6    22   21.7   303    25.8   999.00    697.8    999.0    999000   999000   999.0    999000   999.0
 210   15:15   67.3    22   19.9   303    24.7   999.00    697.8    999.0    999000   999000   999.0    999000   999.0
 210   15:20   67.7    22   17.5   299    22.5   999.00    697.8    999.0    999000   999000   999.0    999000   999.0
 210   15:25   67.9    22   20.1   298    32.9   999.00    697.8    999.0    999000   999000   999.0    999000   999.0
 210   15:30   66.3    23   21.7   305    30.1   999.00    697.7    999.0    999000   999000   999.0    999000   999.0
 210   15:35   65.4    24   20.4   303    27.9   999.00    697.8    999.0    999000   999000   999.0    999000   999.0
 210   15:40   65.8    23   20.8   299    28.0   999.00    697.8    999.0    999000   999000   999.0    999000   999.0
 210   15:45   64.5    24   20.8   304    24.5   999.00    697.8    999.0    999000   999000   999.0    999000   999.0
 210   15:50   64.2    25   20.5   293    27.3   999.00    697.9    999.0    999000   999000   999.0    999000   999.0
 210   15:55   64.3    24   20.4   287    28.8   999.00    697.9    999.0    999000   999000   999.0    999000   999.0
 210   16:00   66.3    24   20.0   283    27.7   999.00    698.0    999.0    999000   999000   999.0    999000   999.0
 210   16:05   66.5    23   21.0   284    28.0   999.00    698.0    999.0    999000   999000   999.0    999000   999.0
 210   16:10   66.5    25   17.8   288    22.1   999.00    698.0    999.0    999000   999000   999.0    999000   999.0
 210   16:15   67.0    24   18.5   279    24.3   999.00    698.0    999.0    999000   999000   999.0    999000   999.0
 210   16:20   66.6    24   20.1   270    27.9   999.00    698.1    999.0    999000   999000   999.0    999000   999.0
 210   16:25   66.4    25   19.8   279    30.6   999.00    698.0    999.0    999000   999000   999.0    999000   999.0
 210   16:30   67.1    25   17.4   274    24.0   999.00    698.0    999.0    999000   999000   999.0    999000   999.0
 210   16:35   67.2    25   17.8   282    25.4   999.00    698.0    999.0    999000   999000   999.0    999000   999.0
 210   16:40   66.7    26   14.2   299    23.8   999.00    698.0    999.0    999000   999000   999.0    999000   999.0
 210   16:45   67.3    26   14.8   285    27.3   999.00    698.0    999.0    999000   999000   999.0    999000   999.0
 210   16:50   67.1    26   15.6   278    27.9   999.00    698.1    999.0    999000   999000   999.0    999000   999.0
 210   16:55   66.6    26   16.0   298    21.3   999.00    698.0    999.0    999000   999000   999.0    999000   999.0
 210   17:00   66.5    27   16.1   308    24.1   999.00    698.0    999.0    999000   999000   999.0    999000   999.0
 210   17:05   66.6    27   15.4   310    21.5   999.00    698.0    999.0    999000   999000   999.0    999000   999.0
 210   17:10   66.6    27   15.0   290    23.2   999.00    698.0    999.0    999000   999000   999.0    999000   999.0
 210   17:15   66.5    27   13.7   290    21.3   999.00    698.0    999.0    999000   999000   999.0    999000   999.0
 210   17:20   66.6    27   13.2   262    21.5   999.00    698.0    999.0    999000   999000   999.0    999000   999.0
 210   17:25   66.3    26   16.0   263    24.5   999.00    698.0    999.0    999000   999000   999.0    999000   999.0
 210   17:30   64.7    28   11.9   269    18.9   999.00    698.0    999.0    999000   999000   999.0    999000   999.0
 210   17:35   64.5    28   10.7   270    17.2   999.00    698.0    999.0    999000   999000   999.0    999000   999.0
 210   17:40   65.7    28   11.3   276    15.9   999.00    697.9    999.0    999000   999000   999.0    999000   999.0
 210   17:45   66.0    27   10.9   280    18.7   999.00    697.9    999.0    999000   999000   999.0    999000   999.0
 210   17:50   65.8    27   11.3   280    16.7   999.00    697.8    999.0    999000   999000   999.0    999000   999.0
 210   17:55   64.2    28    9.0   293    13.0   999.00    697.9    999.0    999000   999000   999.0    999000   999.0
 210   18:00   63.1    28    9.0   285    13.5   999.00    697.9    999.0    999000   999000   999.0    999000   999.0
 210   18:05   62.8    29    7.7   283    13.2   999.00    697.9    999.0    999000   999000   999.0    999000   999.0
 210   18:10   63.1    30    7.2   280    11.1   999.00    697.9    999.0    999000   999000   999.0    999000   999.0
 210   18:15   64.0    30    5.3   289     7.0   999.00    697.9    999.0    999000   999000   999.0    999000   999.0
 210   18:20   64.1    30    4.6   282     6.1   999.00    697.9    999.0    999000   999000   999.0    999000   999.0
 210   18:25   64.5    30    4.8   271     6.8   999.00    697.9    999.0    999000   999000   999.0    999000   999.0
 210   18:30   63.9    30    3.6   271     5.5   999.00    697.9    999.0    999000   999000   999.0    999000   999.0
 210   18:35   62.9    31    2.9   273     5.0   999.00    697.9    999.0    999000   999000   999.0    999000   999.0
 210   18:40   62.2    32    3.1   274     4.8   999.00    697.9    999.0    999000   999000   999.0    999000   999.0
 210   18:45   62.0    32    3.2   274     4.6   999.00    697.9    999.0    999000   999000   999.0    999000   999.0
 210   18:50   62.3    31    3.8   274     5.2   999.00    697.9    999.0    999000   999000   999.0    999000   999.0
 210   18:55   62.3    30    3.2   274     4.6   999.00    697.8    999.0    999000   999000   999.0    999000   999.0
 210   19:00   62.5    30    3.4   274     4.6   999.00    697.8    999.0    999000   999000   999.0    999000   999.0
 210   19:05   62.2    30    4.5   272     6.3   999.00    697.7    999.0    999000   999000   999.0    999000   999.0
 210   19:10   62.2    30    4.6   268     5.9   999.00    697.7    999.0    999000   999000   999.0    999000   999.0
 210   19:15   62.0    30    4.7   276     6.3   999.00    697.7    999.0    999000   999000   999.0    999000   999.0
 210   19:20   62.0    30    5.2   294     6.6   999.00    697.7    999.0    999000   999000   999.0    999000   999.0
 210   19:25   62.2    30    5.0   296     5.9   999.00    697.7    999.0    999000   999000   999.0    999000   999.0
 210   19:30   62.0    30    4.5   289     5.3   999.00    697.7    999.0    999000   999000   999.0    999000   999.0
 210   19:35   61.7    30    4.3   282     5.7   999.00    697.7    999.0    999000   999000   999.0    999000   999.0
 210   19:40   61.7    30    4.8   286     6.3   999.00    697.7    999.0    999000   999000   999.0    999000   999.0
 210   19:45   61.8    30    5.1   291     5.9   999.00    697.7    999.0    999000   999000   999.0    999000   999.0
 210   19:50   61.8    30    5.1   291     7.0   999.00    697.7    999.0    999000   999000   999.0    999000   999.0
 210   19:55   61.9    30    5.7   302     7.9   999.00    697.6    999.0    999000   999000   999.0    999000   999.0
 210   20:00   62.3    29    6.2   309     7.6   999.00    697.6    999.0    999000   999000   999.0    999000   999.0
 210   20:05   62.1    30    6.3   306     7.4   999.00    697.6    999.0    999000   999000   999.0    999000   999.0
 210   20:10   62.2    30    6.0   306     7.4   999.00    697.7    999.0    999000   999000   999.0    999000   999.0
 210   20:15   62.1    30    6.1   305     7.8   999.00    697.7    999.0    999000   999000   999.0    999000   999.0
 210   20:20   62.1    30    5.3   303     7.0   999.00    697.8    999.0    999000   999000   999.0    999000   999.0
 210   20:25   62.0    30    5.6   304     6.6   999.00    697.8    999.0    999000   999000   999.0    999000   999.0
 210   20:30   61.9    30    5.9   297    10.2   999.00    697.8    999.0    999000   999000   999.0    999000   999.0
 210   20:35   61.8    30    5.8   296     8.9   999.00    697.8    999.0    999000   999000   999.0    999000   999.0
 210   20:40   61.8    30    6.0   296     7.4   999.00    697.8    999.0    999000   999000   999.0    999000   999.0
 210   20:45   61.7    30    7.5   299     9.8   999.00    697.8    999.0    999000   999000   999.0    999000   999.0
 210   20:50   61.9    28    8.6   300    12.0   999.00    697.8    999.0    999000   999000   999.0    999000   999.0
 210   20:55   62.2    27    8.5   303    11.8   999.00    697.8    999.0    999000   999000   999.0    999000   999.0
 210   21:00   62.3    27    8.0   302    10.9   999.00    697.9    999.0    999000   999000   999.0    999000   999.0
 210   21:05   62.1    28    8.0   304    10.6   999.00    697.9    999.0    999000   999000   999.0    999000   999.0
 210   21:10   61.9    28    6.5   300    10.6   999.00    697.9    999.0    999000   999000   999.0    999000   999.0
 210   21:15   61.8    28    5.7   304     8.5   999.00    697.9    999.0    999000   999000   999.0    999000   999.0
 210   21:20   61.6    29    4.1   305     6.3   999.00    698.0    999.0    999000   999000   999.0    999000   999.0
 210   21:25   61.4    28    6.7   298    12.4   999.00    697.9    999.0    999000   999000   999.0    999000   999.0
 210   21:30   61.4    28    3.6   305     6.3   999.00    697.9    999.0    999000   999000   999.0    999000   999.0
 210   21:35   61.2    29    5.5   266    12.4   999.00    697.9    999.0    999000   999000   999.0    999000   999.0
 210   21:40   60.9    29    5.7   265    11.1   999.00    697.9    999.0    999000   999000   999.0    999000   999.0
 210   21:45   60.9    27    6.4   288     9.8   999.00    697.9    999.0    999000   999000   999.0    999000   999.0
 210   21:50   60.8    28    7.8   292    11.7   999.00    697.8    999.0    999000   999000   999.0    999000   999.0
 210   21:55   60.9    28    5.7   298     7.6   999.00    697.8    999.0    999000   999000   999.0    999000   999.0
 210   22:00   60.3    28    4.9   283     6.6   999.00    697.8    999.0    999000   999000   999.0    999000   999.0
 210   22:05   60.2    28    4.5   286     7.0   999.00    697.8    999.0    999000   999000   999.0    999000   999.0
 210   22:10   60.4    26    5.9   281     9.2   999.00    697.8    999.0    999000   999000   999.0    999000   999.0
 210   22:15   60.7    25    6.8   295     9.8   999.00    697.8    999.0    999000   999000   999.0    999000   999.0
 210   22:20   60.7    25    9.1   292    13.0   999.00    697.8    999.0    999000   999000   999.0    999000   999.0
 210   22:25   60.5    25    5.6   286    10.0   999.00    697.8    999.0    999000   999000   999.0    999000   999.0
 210   22:30   60.0    26    6.5   292    16.3   999.00    697.8    999.0    999000   999000   999.0    999000   999.0
 210   22:35   60.2    26    6.3   276     9.4   999.00    697.8    999.0    999000   999000   999.0    999000   999.0
 210   22:40   60.0    27    5.8   264     9.4   999.00    697.9    999.0    999000   999000   999.0    999000   999.0
 210   22:45   59.7    28    5.1   281     8.3   999.00    697.9    999.0    999000   999000   999.0    999000   999.0
 210   22:50   59.6    27    4.2   284     6.3   999.00    697.9    999.0    999000   999000   999.0    999000   999.0
 210   22:55   59.5    26    6.6   286     9.6   999.00    698.0    999.0    999000   999000   999.0    999000   999.0
 210   23:00   59.6    26    6.7   289     9.8   999.00    697.9    999.0    999000   999000   999.0    999000   999.0
 210   23:05   60.1    24    9.9   297    14.4   999.00    697.9    999.0    999000   999000   999.0    999000   999.0
 210   23:10   59.7    26    6.0   275    10.6   999.00    697.9    999.0    999000   999000   999.0    999000   999.0
 210   23:15   59.1    26    6.9   278    10.4   999.00    697.9    999.0    999000   999000   999.0    999000   999.0
 210   23:20   59.2    26    6.3   290     8.5   999.00    697.9    999.0    999000   999000   999.0    999000   999.0
 210   23:25   59.2    26    5.4   281     6.6   999.00    697.9    999.0    999000   999000   999.0    999000   999.0
 210   23:30   58.9    26    5.1   280     6.8   999.00    697.8    999.0    999000   999000   999.0    999000   999.0
 210   23:35   58.8    25    4.6   273     5.9   999.00    697.8    999.0    999000   999000   999.0    999000   999.0
 210   23:40   58.9    25    4.2   265     5.7   999.00    697.8    999.0    999000   999000   999.0    999000   999.0
 210   23:45   59.0    24    4.2   264     5.5   999.00    697.8    999.0    999000   999000   999.0    999000   999.0
 210   23:50   59.2    24    3.9   264     5.5   999.00    697.7    999.0    999000   999000   999.0    999000   999.0
 210   23:55   59.3    23    4.4   264     5.5   999.00    697.7    999.0    999000   999000   999.0    999000   999.0
 211    0:00   59.3    23    4.5   260     7.2   999.00    697.7    999.0    999000   999000   999.0    999000   999.0
 211    0:05   59.0    24    4.0   238     6.1   999.00    697.7    999.0    999000   999000   999.0    999000   999.0
 211    0:10   58.6    26    3.3   225     4.2   999.00    697.6    999.0    999000   999000   999.0    999000   999.0
 211    0:15   58.3    29    2.8   225     3.5   999.00    697.6    999.0    999000   999000   999.0    999000   999.0
 211    0:20   57.9    30    3.0   225     3.5   999.00    697.6    999.0    999000   999000   999.0    999000   999.0
 211    0:25   57.7    30    3.0   225     3.7   999.00    697.6    999.0    999000   999000   999.0    999000   999.0
 211    0:30   57.7    30    3.7   222     4.2   999.00    697.5    999.0    999000   999000   999.0    999000   999.0
 211    0:35   57.6    29    4.7   190     7.4   999.00    697.4    999.0    999000   999000   999.0    999000   999.0
 211    0:40   57.5    27    6.7   182     8.1   999.00    697.4    999.0    999000   999000   999.0    999000   999.0
 211    0:45   57.1    27    7.4   192    11.1   999.00    697.4    999.0    999000   999000   999.0    999000   999.0
 211    0:50   56.9    27    6.3   196     9.1   999.00    697.4    999.0    999000   999000   999.0    999000   999.0
 211    0:55   56.7    27    5.0   203     9.2   999.00    697.4    999.0    999000   999000   999.0    999000   999.0
 211    1:00   56.8    27    4.8   203     7.0   999.00    697.4    999.0    999000   999000   999.0    999000   999.0
 211    1:05   56.5    27    4.5   204     7.2   999.00    697.4    999.0    999000   999000   999.0    999000   999.0
 211    1:10   56.6    27    5.6   199     7.0   999.00    697.3    999.0    999000   999000   999.0    999000   999.0
 211    1:15   56.8    26    4.6   196     6.6   999.00    697.3    999.0    999000   999000   999.0    999000   999.0
 211    1:20   56.7    26    4.7   190     7.8   999.00    697.3    999.0    999000   999000   999.0    999000   999.0
 211    1:25   56.6    26    4.4   205     6.5   999.00    697.3    999.0    999000   999000   999.0    999000   999.0
 211    1:30   56.5    26    4.1   197     6.1   999.00    697.3    999.0    999000   999000   999.0    999000   999.0
 211    1:35   56.4    26    4.0   196     5.0   999.00    697.2    999.0    999000   999000   999.0    999000   999.0
 211    1:40   56.2    26    4.4   214     6.6   999.00    697.2    999.0    999000   999000   999.0    999000   999.0
 211    1:45   56.4    26    3.7   209     5.7   999.00    697.2    999.0    999000   999000   999.0    999000   999.0
 211    1:50   56.2    27    3.3   217     5.0   999.00    697.2    999.0    999000   999000   999.0    999000   999.0
 211    1:55   56.2    27    3.5   209     5.5   999.00    697.2    999.0    999000   999000   999.0    999000   999.0
 211    2:00   56.2    27    3.6   203     4.6   999.00    697.2    999.0    999000   999000   999.0    999000   999.0
 211    2:05   56.1    27    4.8   215     8.1   999.00    697.2    999.0    999000   999000   999.0    999000   999.0
 211    2:10   56.2    27    2.9   214     5.0   999.00    697.1    999.0    999000   999000   999.0    999000   999.0
 211    2:15   56.2    27    3.8   221     5.7   999.00    697.1    999.0    999000   999000   999.0    999000   999.0
 211    2:20   56.1    28    3.7   234     5.2   999.00    697.1    999.0    999000   999000   999.0    999000   999.0
 211    2:25   55.8    28    3.9   236     8.5   999.00    697.1    999.0    999000   999000   999.0    999000   999.0
 211    2:30   55.6    29    4.8   232     8.1   999.00    697.0    999.0    999000   999000   999.0    999000   999.0
 211    2:35   55.9    28    3.8   240     4.8   999.00    697.1    999.0    999000   999000   999.0    999000   999.0
 211    2:40   55.6    29    2.9   249     3.7   999.00    697.0    999.0    999000   999000   999.0    999000   999.0
 211    2:45   55.4    29    3.8   257     5.7   999.00    697.0    999.0    999000   999000   999.0    999000   999.0
 211    2:50   55.3    29    3.7   267     4.6   999.00    697.0    999.0    999000   999000   999.0    999000   999.0
 211    2:55   55.3    29    4.0   266     4.6   999.00    697.0    999.0    999000   999000   999.0    999000   999.0
 211    3:00   55.3    29    3.9   262     4.8   999.00    697.1    999.0    999000   999000   999.0    999000   999.0
 211    3:05   55.1    29    3.4   278     4.4   999.00    697.0    999.0    999000   999000   999.0    999000   999.0
 211    3:10   55.0    30    3.5   278     4.4   999.00    696.9    999.0    999000   999000   999.0    999000   999.0
 211    3:15   55.0    30    3.5   282     4.0   999.00    697.0    999.0    999000   999000   999.0    999000   999.0
 211    3:20   55.0    30    3.5   282     4.4   999.00    697.0    999.0    999000   999000   999.0    999000   999.0
 211    3:25   55.3    29    3.5   264     4.2   999.00    697.0    999.0    999000   999000   999.0    999000   999.0
 211    3:30   55.4    28    3.8   265     4.6   999.00    697.1    999.0    999000   999000   999.0    999000   999.0
 211    3:35   55.4    28    4.2   272     5.2   999.00    697.0    999.0    999000   999000   999.0    999000   999.0
 211    3:40   55.1    28    3.6   276     4.4   999.00    697.1    999.0    999000   999000   999.0    999000   999.0
 211    3:45   55.2    28    3.9   269     4.6   999.00    697.1    999.0    999000   999000   999.0    999000   999.0
 211    3:50   55.3    28    3.8   264     4.2   999.00    697.1    999.0    999000   999000   999.0    999000   999.0
 211    3:55   55.2    28    4.2   267     4.8   999.00    697.1    999.0    999000   999000   999.0    999000   999.0
 211    4:00   55.2    28    4.4   269     5.0   999.00    697.1    999.0    999000   999000   999.0    999000   999.0
 211    4:05   54.7    29    3.7   275     4.2   999.00    697.1    999.0    999000   999000   999.0    999000   999.0
 211    4:10   54.5    29    3.9   286     4.4   999.00    697.1    999.0    999000   999000   999.0    999000   999.0
 211    4:15   54.4    29    4.0   283     4.6   999.00    697.1    999.0    999000   999000   999.0    999000   999.0
 211    4:20   54.6    29    3.7   273     4.2   999.00    697.2    999.0    999000   999000   999.0    999000   999.0
 211    4:25   55.0    28    4.6   295     6.3   999.00    697.2    999.0    999000   999000   999.0    999000   999.0
 211    4:30   56.0    27    4.4   300     5.7   999.00    697.2    999.0    999000   999000   999.0    999000   999.0
 211    4:35   54.8    29    3.5   294     4.4   999.00    697.2    999.0    999000   999000   999.0    999000   999.0
 211    4:40   54.4    30    4.1   276     4.6   999.00    697.2    999.0    999000   999000   999.0    999000   999.0
 211    4:45   53.9    31    4.1   275     4.6   999.00    697.2    999.0    999000   999000   999.0    999000   999.0
 211    4:50   54.0    31    4.0   273     4.4   999.00    697.3    999.0    999000   999000   999.0    999000   999.0
 211    4:55   53.5    33    3.8   258     4.4   999.00    697.4    999.0    999000   999000   999.0    999000   999.0
 211    5:00   53.5    33    5.3   252     6.8   999.00    697.5    999.0    999000   999000   999.0    999000   999.0
 211    5:05   53.1    35    7.0   256     8.9   999.00    697.5    999.0    999000   999000   999.0    999000   999.0
 211    5:10   52.7    36    6.3   260     7.6   999.00    697.5    999.0    999000   999000   999.0    999000   999.0
 211    5:15   52.4    37    6.5   262     7.8   999.00    697.5    999.0    999000   999000   999.0    999000   999.0
 211    5:20   52.2    38    6.0   263     7.4   999.00    697.5    999.0    999000   999000   999.0    999000   999.0
 211    5:25   52.0    37    5.2   269     7.0   999.00    697.5    999.0    999000   999000   999.0    999000   999.0
 211    5:30   51.9    37    5.3   270     6.1   999.00    697.5    999.0    999000   999000   999.0    999000   999.0
 211    5:35   51.8    37    5.1   277     7.2   999.00    697.5    999.0    999000   999000   999.0    999000   999.0
 211    5:40   51.8    37    5.0   278     6.8   999.00    697.6    999.0    999000   999000   999.0    999000   999.0
 211    5:45   51.8    38    4.7   284     6.1   999.00    697.6    999.0    999000   999000   999.0    999000   999.0
 211    5:50   51.9    38    4.4   286     5.3   999.00    697.7    999.0    999000   999000   999.0    999000   999.0
 211    5:55   51.9    38    4.2   284     6.1   999.00    697.7    999.0    999000   999000   999.0    999000   999.0
 211    6:00   52.0    38    4.2   277     5.2   999.00    697.7    999.0    999000   999000   999.0    999000   999.0
 211    6:05   52.0    38    4.1   281     5.2   999.00    697.7    999.0    999000   999000   999.0    999000   999.0
 211    6:10   52.2    38    4.0   284     5.2   999.00    697.8    999.0    999000   999000   999.0    999000   999.0
 211    6:15   52.2    38    4.4   283     5.2   999.00    697.8    999.0    999000   999000   999.0    999000   999.0
 211    6:20   52.1    38    4.0   286     5.2   999.00    697.8    999.0    999000   999000   999.0    999000   999.0
 211    6:25   52.2    38    3.5   286     5.0   999.00    697.9    999.0    999000   999000   999.0    999000   999.0
 211    6:30   52.2    38    3.2   292     4.0   999.00    697.9    999.0    999000   999000   999.0    999000   999.0
 211    6:35   52.2    39    3.4   292     4.6   999.00    697.9    999.0    999000   999000   999.0    999000   999.0
 211    6:40   52.3    39    3.2   292     3.8   999.00    697.9    999.0    999000   999000   999.0    999000   999.0
 211    6:45   52.8    39    4.1   300     5.5   999.00    697.9    999.0    999000   999000   999.0    999000   999.0
 211    6:50   53.1    39    3.2   304     4.0   999.00    697.9    999.0    999000   999000   999.0    999000   999.0
 211    6:55   53.0    40    3.8   304     5.5   999.00    697.9    999.0    999000   999000   999.0    999000   999.0
 211    7:00   54.0    38    4.0   303     4.8   999.00    697.9    999.0    999000   999000   999.0    999000   999.0
 211    7:05   54.2    38    4.4   303     5.3   999.00    697.9    999.0    999000   999000   999.0    999000   999.0
 211    7:10   54.6    37    5.0   304     5.5   999.00    697.9    999.0    999000   999000   999.0    999000   999.0
 211    7:15   54.8    37    4.6   310     5.7   999.00    698.0    999.0    999000   999000   999.0    999000   999.0
 211    7:20   54.6    38    3.3   310     3.8   999.00    698.1    999.0    999000   999000   999.0    999000   999.0
 211    7:25   53.9    39    3.3   310     4.8   999.00    698.1    999.0    999000   999000   999.0    999000   999.0
 211    7:30   54.4    39    3.7   311     5.5   999.00    698.2    999.0    999000   999000   999.0    999000   999.0
 211    7:35   55.2    38    4.3   320     6.1   999.00    698.2    999.0    999000   999000   999.0    999000   999.0
 211    7:40   55.5    39    4.3   330     5.5   999.00    698.2    999.0    999000   999000   999.0    999000   999.0
 211    7:45   55.5    39    4.0   334     4.6   999.00    698.2    999.0    999000   999000   999.0    999000   999.0
 211    7:50   55.3    40    3.6   339     4.6   999.00    698.2    999.0    999000   999000   999.0    999000   999.0
 211    7:55   55.6    40    4.1   332     5.3   999.00    698.2    999.0    999000   999000   999.0    999000   999.0
 211    8:00   55.7    41    4.1   329     5.2   999.00    698.2    999.0    999000   999000   999.0    999000   999.0
 211    8:05   55.6    42    4.5   332     6.1   999.00    698.2    999.0    999000   999000   999.0    999000   999.0
 211    8:10   55.8    43    4.3   331     6.3   999.00    698.3    999.0    999000   999000   999.0    999000   999.0
 211    8:15   56.1    44    4.3   326     5.5   999.00    698.3    999.0    999000   999000   999.0    999000   999.0
 211    8:20   56.3    43    4.6   335     5.5   999.00    698.3    999.0    999000   999000   999.0    999000   999.0
 211    8:25   56.2    43    4.6   336     5.9   999.00    698.2    999.0    999000   999000   999.0    999000   999.0
 211    8:30   56.6    44    4.3   328     5.9   999.00    698.3    999.0    999000   999000   999.0    999000   999.0
 211    8:35   57.3    44    4.3   334     6.3   999.00    698.2    999.0    999000   999000   999.0    999000   999.0
 211    8:40   57.6    44    4.0   345     7.6   999.00    698.3    999.0    999000   999000   999.0    999000   999.0
 211    8:45   57.5    45    3.5   338     5.9   999.00    698.3    999.0    999000   999000   999.0    999000   999.0
 211    8:50   58.0    44    4.4   343     7.0   999.00    698.3    999.0    999000   999000   999.0    999000   999.0
 211    8:55   58.3    44    4.4   343     7.4   999.00    698.3    999.0    999000   999000   999.0    999000   999.0
 211    9:00   57.9    45    4.1   355     5.3   999.00    698.3    999.0    999000   999000   999.0    999000   999.0
 211    9:05   58.0    46    3.7   346     6.3   999.00    698.3    999.0    999000   999000   999.0    999000   999.0

Return to DRI Storm Peak Lab. graphs page.


Western Regional Climate Center,wrcc@dri.edu